Aviation Digital Data Service (ADDS)

Output produced by METARs form (0749 UTC 30 August 2015)
found at http://aviationweather.gov/adds/metars/
 
KLFT 300520Z 3006/3106 20006KT P6SM FEW050